sensor_id;sensor_type;location;lat;lon;timestamp;P1;durP1;ratioP1;P2;durP2;ratioP2
74632;SDS011;63139;52.018;8.552;2023-03-11T00:01:12;5.10;;;3.35;;
74632;SDS011;63139;52.018;8.552;2023-03-11T00:03:40;4.63;;;3.47;;
74632;SDS011;63139;52.018;8.552;2023-03-11T00:06:09;5.60;;;3.42;;
74632;SDS011;63139;52.018;8.552;2023-03-11T00:08:37;5.97;;;3.35;;
74632;SDS011;63139;52.018;8.552;2023-03-11T00:11:04;5.35;;;3.00;;
74632;SDS011;63139;52.018;8.552;2023-03-11T00:13:32;3.58;;;2.97;;
74632;SDS011;63139;52.018;8.552;2023-03-11T00:16:02;3.95;;;3.08;;
74632;SDS011;63139;52.018;8.552;2023-03-11T00:18:30;5.65;;;3.17;;
74632;SDS011;63139;52.018;8.552;2023-03-11T00:20:58;4.50;;;3.40;;
74632;SDS011;63139;52.018;8.552;2023-03-11T00:23:28;4.78;;;3.38;;
74632;SDS011;63139;52.018;8.552;2023-03-11T00:25:56;6.70;;;3.70;;
74632;SDS011;63139;52.018;8.552;2023-03-11T00:28:25;5.18;;;3.30;;
74632;SDS011;63139;52.018;8.552;2023-03-11T00:30:52;4.18;;;3.40;;
74632;SDS011;63139;52.018;8.552;2023-03-11T00:33:20;5.40;;;3.60;;
74632;SDS011;63139;52.018;8.552;2023-03-11T00:35:49;5.65;;;3.30;;
74632;SDS011;63139;52.018;8.552;2023-03-11T00:38:18;4.80;;;2.85;;
74632;SDS011;63139;52.018;8.552;2023-03-11T00:40:48;6.15;;;3.45;;
74632;SDS011;63139;52.018;8.552;2023-03-11T00:43:16;6.45;;;3.42;;
74632;SDS011;63139;52.018;8.552;2023-03-11T00:45:44;3.58;;;2.70;;
74632;SDS011;63139;52.018;8.552;2023-03-11T00:48:12;8.60;;;3.28;;
74632;SDS011;63139;52.018;8.552;2023-03-11T00:50:40;6.45;;;3.00;;
74632;SDS011;63139;52.018;8.552;2023-03-11T00:53:09;7.70;;;3.38;;
74632;SDS011;63139;52.018;8.552;2023-03-11T00:55:37;5.90;;;3.03;;
74632;SDS011;63139;52.018;8.552;2023-03-11T00:58:09;3.47;;;2.95;;
74632;SDS011;63139;52.018;8.552;2023-03-11T01:00:41;7.53;;;3.30;;
74632;SDS011;63139;52.018;8.552;2023-03-11T01:03:09;9.70;;;3.05;;
74632;SDS011;63139;52.018;8.552;2023-03-11T01:05:36;6.50;;;3.10;;
74632;SDS011;63139;52.018;8.552;2023-03-11T01:08:04;4.25;;;2.97;;
74632;SDS011;63139;52.018;8.552;2023-03-11T01:10:33;7.80;;;3.30;;
74632;SDS011;63139;52.018;8.552;2023-03-11T01:13:01;6.43;;;2.85;;
74632;SDS011;63139;52.018;8.552;2023-03-11T01:15:31;6.95;;;3.25;;
74632;SDS011;63139;52.018;8.552;2023-03-11T01:18:01;5.93;;;3.10;;
74632;SDS011;63139;52.018;8.552;2023-03-11T01:20:31;4.43;;;3.28;;
74632;SDS011;63139;52.018;8.552;2023-03-11T01:22:59;5.95;;;3.20;;
74632;SDS011;63139;52.018;8.552;2023-03-11T01:25:27;4.80;;;3.25;;
74632;SDS011;63139;52.018;8.552;2023-03-11T01:27:56;8.63;;;3.28;;
74632;SDS011;63139;52.018;8.552;2023-03-11T01:30:24;11.43;;;3.45;;
74632;SDS011;63139;52.018;8.552;2023-03-11T01:32:56;4.97;;;3.00;;
74632;SDS011;63139;52.018;8.552;2023-03-11T01:35:25;6.50;;;3.10;;
74632;SDS011;63139;52.018;8.552;2023-03-11T01:37:55;4.82;;;3.00;;
74632;SDS011;63139;52.018;8.552;2023-03-11T01:40:24;6.10;;;3.15;;
74632;SDS011;63139;52.018;8.552;2023-03-11T01:42:57;8.80;;;4.00;;
74632;SDS011;63139;52.018;8.552;2023-03-11T01:45:32;6.80;;;3.60;;
74632;SDS011;63139;52.018;8.552;2023-03-11T01:48:11;7.03;;;3.30;;
74632;SDS011;63139;52.018;8.552;2023-03-11T01:50:40;5.88;;;3.40;;
74632;SDS011;63139;52.018;8.552;2023-03-11T01:53:13;8.98;;;3.75;;
74632;SDS011;63139;52.018;8.552;2023-03-11T01:55:43;9.50;;;4.05;;
74632;SDS011;63139;52.018;8.552;2023-03-11T01:58:13;6.15;;;3.55;;
74632;SDS011;63139;52.018;8.552;2023-03-11T02:00:44;8.13;;;3.95;;
74632;SDS011;63139;52.018;8.552;2023-03-11T02:03:14;8.80;;;4.30;;
74632;SDS011;63139;52.018;8.552;2023-03-11T02:05:47;6.38;;;3.90;;
74632;SDS011;63139;52.018;8.552;2023-03-11T02:08:19;6.50;;;4.22;;
74632;SDS011;63139;52.018;8.552;2023-03-11T02:10:47;8.07;;;4.13;;
74632;SDS011;63139;52.018;8.552;2023-03-11T02:13:19;7.63;;;4.00;;
74632;SDS011;63139;52.018;8.552;2023-03-11T02:15:47;9.60;;;4.35;;
74632;SDS011;63139;52.018;8.552;2023-03-11T02:18:17;6.57;;;3.72;;
74632;SDS011;63139;52.018;8.552;2023-03-11T02:20:48;7.55;;;4.38;;
74632;SDS011;63139;52.018;8.552;2023-03-11T02:23:22;6.22;;;3.70;;
74632;SDS011;63139;52.018;8.552;2023-03-11T02:25:56;6.07;;;3.78;;
74632;SDS011;63139;52.018;8.552;2023-03-11T02:28:30;8.82;;;4.20;;
74632;SDS011;63139;52.018;8.552;2023-03-11T02:31:01;8.57;;;4.50;;
74632;SDS011;63139;52.018;8.552;2023-03-11T02:33:30;7.32;;;4.20;;
74632;SDS011;63139;52.018;8.552;2023-03-11T02:36:01;6.53;;;4.40;;
74632;SDS011;63139;52.018;8.552;2023-03-11T02:38:29;9.02;;;4.18;;
74632;SDS011;63139;52.018;8.552;2023-03-11T02:40:58;9.25;;;4.90;;
74632;SDS011;63139;52.018;8.552;2023-03-11T02:43:32;8.13;;;4.38;;
74632;SDS011;63139;52.018;8.552;2023-03-11T02:46:03;9.20;;;4.10;;
74632;SDS011;63139;52.018;8.552;2023-03-11T02:48:34;8.48;;;3.90;;
74632;SDS011;63139;52.018;8.552;2023-03-11T02:51:03;8.35;;;4.07;;
74632;SDS011;63139;52.018;8.552;2023-03-11T02:53:35;5.40;;;3.95;;
74632;SDS011;63139;52.018;8.552;2023-03-11T02:56:07;8.68;;;3.78;;
74632;SDS011;63139;52.018;8.552;2023-03-11T02:58:36;5.97;;;3.63;;
74632;SDS011;63139;52.018;8.552;2023-03-11T03:01:04;8.15;;;3.78;;
74632;SDS011;63139;52.018;8.552;2023-03-11T03:03:33;10.23;;;3.90;;
74632;SDS011;63139;52.018;8.552;2023-03-11T03:06:01;8.52;;;3.90;;
74632;SDS011;63139;52.018;8.552;2023-03-11T03:08:29;4.93;;;4.03;;
74632;SDS011;63139;52.018;8.552;2023-03-11T03:10:56;11.10;;;3.97;;
74632;SDS011;63139;52.018;8.552;2023-03-11T03:13:25;9.35;;;4.20;;
74632;SDS011;63139;52.018;8.552;2023-03-11T03:15:55;5.90;;;4.05;;
74632;SDS011;63139;52.018;8.552;2023-03-11T03:18:24;6.80;;;4.32;;
74632;SDS011;63139;52.018;8.552;2023-03-11T03:20:52;10.43;;;4.43;;
74632;SDS011;63139;52.018;8.552;2023-03-11T03:23:21;6.50;;;3.75;;
74632;SDS011;63139;52.018;8.552;2023-03-11T03:25:49;7.15;;;4.15;;
74632;SDS011;63139;52.018;8.552;2023-03-11T03:28:17;8.93;;;4.28;;
74632;SDS011;63139;52.018;8.552;2023-03-11T03:30:45;10.38;;;4.30;;
74632;SDS011;63139;52.018;8.552;2023-03-11T03:33:14;10.88;;;4.40;;
74632;SDS011;63139;52.018;8.552;2023-03-11T03:35:43;7.30;;;4.07;;
74632;SDS011;63139;52.018;8.552;2023-03-11T03:38:19;9.15;;;3.70;;
74632;SDS011;63139;52.018;8.552;2023-03-11T03:40:49;6.38;;;4.00;;
74632;SDS011;63139;52.018;8.552;2023-03-11T03:43:19;8.52;;;3.47;;
74632;SDS011;63139;52.018;8.552;2023-03-11T03:45:53;5.75;;;3.08;;
74632;SDS011;63139;52.018;8.552;2023-03-11T03:48:25;7.00;;;3.50;;
74632;SDS011;63139;52.018;8.552;2023-03-11T03:50:53;5.35;;;3.15;;
74632;SDS011;63139;52.018;8.552;2023-03-11T03:53:22;7.53;;;3.80;;
74632;SDS011;63139;52.018;8.552;2023-03-11T03:55:49;6.82;;;3.10;;
74632;SDS011;63139;52.018;8.552;2023-03-11T03:58:19;8.07;;;3.53;;
74632;SDS011;63139;52.018;8.552;2023-03-11T04:00:47;8.80;;;3.80;;
74632;SDS011;63139;52.018;8.552;2023-03-11T04:03:15;7.43;;;3.80;;
74632;SDS011;63139;52.018;8.552;2023-03-11T04:05:52;6.97;;;3.60;;
74632;SDS011;63139;52.018;8.552;2023-03-11T04:08:20;11.07;;;3.80;;
74632;SDS011;63139;52.018;8.552;2023-03-11T04:10:55;9.95;;;4.28;;
74632;SDS011;63139;52.018;8.552;2023-03-11T04:13:24;9.77;;;4.35;;
74632;SDS011;63139;52.018;8.552;2023-03-11T04:15:52;10.57;;;4.70;;
74632;SDS011;63139;52.018;8.552;2023-03-11T04:18:19;10.20;;;4.65;;
74632;SDS011;63139;52.018;8.552;2023-03-11T04:20:48;10.55;;;4.53;;
74632;SDS011;63139;52.018;8.552;2023-03-11T04:23:17;9.88;;;4.85;;
74632;SDS011;63139;52.018;8.552;2023-03-11T04:26:00;10.57;;;4.40;;
74632;SDS011;63139;52.018;8.552;2023-03-11T04:28:28;7.53;;;4.40;;
74632;SDS011;63139;52.018;8.552;2023-03-11T04:30:58;9.55;;;4.63;;
74632;SDS011;63139;52.018;8.552;2023-03-11T04:33:26;9.43;;;5.10;;
74632;SDS011;63139;52.018;8.552;2023-03-11T04:35:53;7.68;;;4.10;;
74632;SDS011;63139;52.018;8.552;2023-03-11T04:38:23;8.45;;;3.90;;
74632;SDS011;63139;52.018;8.552;2023-03-11T04:40:51;11.95;;;4.82;;
74632;SDS011;63139;52.018;8.552;2023-03-11T04:43:19;9.63;;;4.43;;
74632;SDS011;63139;52.018;8.552;2023-03-11T04:45:48;9.63;;;4.25;;
74632;SDS011;63139;52.018;8.552;2023-03-11T04:48:17;9.50;;;4.20;;
74632;SDS011;63139;52.018;8.552;2023-03-11T04:50:45;8.00;;;4.15;;
74632;SDS011;63139;52.018;8.552;2023-03-11T04:53:13;9.40;;;4.25;;
74632;SDS011;63139;52.018;8.552;2023-03-11T04:55:42;9.95;;;4.30;;
74632;SDS011;63139;52.018;8.552;2023-03-11T04:58:11;8.55;;;4.38;;
74632;SDS011;63139;52.018;8.552;2023-03-11T05:00:39;7.10;;;4.00;;
74632;SDS011;63139;52.018;8.552;2023-03-11T05:03:10;7.85;;;3.50;;
74632;SDS011;63139;52.018;8.552;2023-03-11T05:05:38;16.40;;;3.30;;
74632;SDS011;63139;52.018;8.552;2023-03-11T05:08:07;9.43;;;3.35;;
74632;SDS011;63139;52.018;8.552;2023-03-11T05:10:35;9.25;;;3.20;;
74632;SDS011;63139;52.018;8.552;2023-03-11T05:13:06;7.63;;;3.33;;
74632;SDS011;63139;52.018;8.552;2023-03-11T05:15:36;8.98;;;3.15;;
74632;SDS011;63139;52.018;8.552;2023-03-11T05:18:05;8.10;;;3.17;;
74632;SDS011;63139;52.018;8.552;2023-03-11T05:20:35;6.32;;;2.90;;
74632;SDS011;63139;52.018;8.552;2023-03-11T05:23:04;5.72;;;2.85;;
74632;SDS011;63139;52.018;8.552;2023-03-11T05:25:34;6.60;;;3.35;;
74632;SDS011;63139;52.018;8.552;2023-03-11T05:28:03;8.10;;;3.03;;
74632;SDS011;63139;52.018;8.552;2023-03-11T05:30:36;4.63;;;2.90;;
74632;SDS011;63139;52.018;8.552;2023-03-11T05:33:04;8.00;;;3.05;;
74632;SDS011;63139;52.018;8.552;2023-03-11T05:35:31;7.60;;;3.22;;
74632;SDS011;63139;52.018;8.552;2023-03-11T05:38:00;7.88;;;3.42;;
74632;SDS011;63139;52.018;8.552;2023-03-11T05:40:29;6.57;;;3.25;;
74632;SDS011;63139;52.018;8.552;2023-03-11T05:42:57;5.65;;;3.10;;
74632;SDS011;63139;52.018;8.552;2023-03-11T05:45:27;6.15;;;3.08;;
74632;SDS011;63139;52.018;8.552;2023-03-11T05:47:58;5.53;;;2.67;;
74632;SDS011;63139;52.018;8.552;2023-03-11T05:50:27;5.55;;;2.90;;
74632;SDS011;63139;52.018;8.552;2023-03-11T05:52:56;6.75;;;2.88;;
74632;SDS011;63139;52.018;8.552;2023-03-11T05:55:24;5.22;;;3.03;;
74632;SDS011;63139;52.018;8.552;2023-03-11T05:57:52;6.35;;;2.92;;
74632;SDS011;63139;52.018;8.552;2023-03-11T06:00:21;8.45;;;3.08;;
74632;SDS011;63139;52.018;8.552;2023-03-11T06:02:51;9.05;;;2.90;;
74632;SDS011;63139;52.018;8.552;2023-03-11T06:05:20;6.22;;;2.75;;
74632;SDS011;63139;52.018;8.552;2023-03-11T06:07:49;6.93;;;2.55;;
74632;SDS011;63139;52.018;8.552;2023-03-11T06:10:20;7.45;;;2.50;;
74632;SDS011;63139;52.018;8.552;2023-03-11T06:12:48;11.48;;;3.00;;
74632;SDS011;63139;52.018;8.552;2023-03-11T06:15:28;5.18;;;2.50;;
74632;SDS011;63139;52.018;8.552;2023-03-11T06:17:57;6.80;;;2.60;;
74632;SDS011;63139;52.018;8.552;2023-03-11T06:20:30;7.85;;;2.60;;
74632;SDS011;63139;52.018;8.552;2023-03-11T06:22:58;4.13;;;2.50;;
74632;SDS011;63139;52.018;8.552;2023-03-11T06:25:26;6.78;;;2.25;;
74632;SDS011;63139;52.018;8.552;2023-03-11T06:27:54;3.28;;;2.03;;
74632;SDS011;63139;52.018;8.552;2023-03-11T06:30:23;6.78;;;2.40;;
74632;SDS011;63139;52.018;8.552;2023-03-11T06:32:58;4.60;;;2.03;;
74632;SDS011;63139;52.018;8.552;2023-03-11T06:35:28;6.85;;;2.08;;
74632;SDS011;63139;52.018;8.552;2023-03-11T06:37:56;7.40;;;2.30;;
74632;SDS011;63139;52.018;8.552;2023-03-11T06:40:24;10.30;;;2.30;;
74632;SDS011;63139;52.018;8.552;2023-03-11T06:42:52;3.92;;;1.83;;
74632;SDS011;63139;52.018;8.552;2023-03-11T06:45:22;3.42;;;1.88;;
74632;SDS011;63139;52.018;8.552;2023-03-11T06:47:51;5.97;;;1.90;;
74632;SDS011;63139;52.018;8.552;2023-03-11T06:50:20;7.18;;;2.05;;
74632;SDS011;63139;52.018;8.552;2023-03-11T06:52:51;6.90;;;1.95;;
74632;SDS011;63139;52.018;8.552;2023-03-11T06:55:19;7.68;;;2.20;;
74632;SDS011;63139;52.018;8.552;2023-03-11T06:57:47;4.70;;;1.85;;
74632;SDS011;63139;52.018;8.552;2023-03-11T07:00:15;7.25;;;1.60;;
74632;SDS011;63139;52.018;8.552;2023-03-11T07:02:49;6.35;;;1.55;;
74632;SDS011;63139;52.018;8.552;2023-03-11T07:05:18;6.00;;;2.00;;
74632;SDS011;63139;52.018;8.552;2023-03-11T07:07:48;1.98;;;1.52;;
74632;SDS011;63139;52.018;8.552;2023-03-11T07:10:20;5.10;;;1.88;;
74632;SDS011;63139;52.018;8.552;2023-03-11T07:12:48;17.33;;;3.10;;
74632;SDS011;63139;52.018;8.552;2023-03-11T07:15:18;6.80;;;1.98;;
74632;SDS011;63139;52.018;8.552;2023-03-11T07:17:45;8.93;;;1.60;;
74632;SDS011;63139;52.018;8.552;2023-03-11T07:20:13;5.05;;;1.60;;
74632;SDS011;63139;52.018;8.552;2023-03-11T07:22:41;5.35;;;2.00;;
74632;SDS011;63139;52.018;8.552;2023-03-11T07:25:09;3.17;;;1.70;;
74632;SDS011;63139;52.018;8.552;2023-03-11T07:27:38;6.85;;;1.63;;
74632;SDS011;63139;52.018;8.552;2023-03-11T07:30:07;8.07;;;1.70;;
74632;SDS011;63139;52.018;8.552;2023-03-11T07:32:36;4.78;;;1.77;;
74632;SDS011;63139;52.018;8.552;2023-03-11T07:35:04;6.82;;;1.70;;
74632;SDS011;63139;52.018;8.552;2023-03-11T07:37:33;5.78;;;1.95;;
74632;SDS011;63139;52.018;8.552;2023-03-11T07:40:01;3.58;;;1.75;;
74632;SDS011;63139;52.018;8.552;2023-03-11T07:42:29;5.93;;;2.15;;
74632;SDS011;63139;52.018;8.552;2023-03-11T07:45:00;3.20;;;1.90;;
74632;SDS011;63139;52.018;8.552;2023-03-11T07:47:28;7.18;;;1.90;;
74632;SDS011;63139;52.018;8.552;2023-03-11T07:49:56;5.55;;;1.90;;
74632;SDS011;63139;52.018;8.552;2023-03-11T07:52:24;5.18;;;2.00;;
74632;SDS011;63139;52.018;8.552;2023-03-11T07:54:51;3.47;;;1.80;;
74632;SDS011;63139;52.018;8.552;2023-03-11T07:57:19;5.15;;;2.00;;
74632;SDS011;63139;52.018;8.552;2023-03-11T07:59:47;3.88;;;1.60;;
74632;SDS011;63139;52.018;8.552;2023-03-11T08:02:16;5.45;;;2.00;;
74632;SDS011;63139;52.018;8.552;2023-03-11T08:04:45;8.18;;;2.35;;
74632;SDS011;63139;52.018;8.552;2023-03-11T08:07:13;5.38;;;2.38;;
74632;SDS011;63139;52.018;8.552;2023-03-11T08:09:41;7.95;;;2.13;;
74632;SDS011;63139;52.018;8.552;2023-03-11T08:12:09;5.72;;;2.42;;
74632;SDS011;63139;52.018;8.552;2023-03-11T08:14:37;5.03;;;2.25;;
74632;SDS011;63139;52.018;8.552;2023-03-11T08:17:05;5.57;;;1.85;;
74632;SDS011;63139;52.018;8.552;2023-03-11T08:19:34;4.63;;;2.10;;
74632;SDS011;63139;52.018;8.552;2023-03-11T08:22:02;7.50;;;2.35;;
74632;SDS011;63139;52.018;8.552;2023-03-11T08:24:30;7.68;;;2.40;;
74632;SDS011;63139;52.018;8.552;2023-03-11T08:26:58;12.00;;;2.53;;
74632;SDS011;63139;52.018;8.552;2023-03-11T08:29:26;6.35;;;2.17;;
74632;SDS011;63139;52.018;8.552;2023-03-11T08:31:53;5.55;;;2.70;;
74632;SDS011;63139;52.018;8.552;2023-03-11T08:34:21;4.22;;;2.25;;
74632;SDS011;63139;52.018;8.552;2023-03-11T08:36:50;9.00;;;2.58;;
74632;SDS011;63139;52.018;8.552;2023-03-11T08:39:18;5.50;;;2.20;;
74632;SDS011;63139;52.018;8.552;2023-03-11T08:41:46;7.13;;;2.58;;
74632;SDS011;63139;52.018;8.552;2023-03-11T08:44:14;6.72;;;2.53;;
74632;SDS011;63139;52.018;8.552;2023-03-11T08:46:42;7.43;;;2.50;;
74632;SDS011;63139;52.018;8.552;2023-03-11T08:49:10;11.55;;;2.70;;
74632;SDS011;63139;52.018;8.552;2023-03-11T08:51:38;4.78;;;2.47;;
74632;SDS011;63139;52.018;8.552;2023-03-11T08:54:07;6.75;;;2.47;;
74632;SDS011;63139;52.018;8.552;2023-03-11T08:56:35;5.75;;;2.30;;
74632;SDS011;63139;52.018;8.552;2023-03-11T08:59:03;5.78;;;2.13;;
74632;SDS011;63139;52.018;8.552;2023-03-11T09:01:31;5.53;;;2.53;;
74632;SDS011;63139;52.018;8.552;2023-03-11T09:03:58;7.38;;;2.88;;
74632;SDS011;63139;52.018;8.552;2023-03-11T09:06:26;9.00;;;2.35;;
74632;SDS011;63139;52.018;8.552;2023-03-11T09:08:55;9.10;;;2.50;;
74632;SDS011;63139;52.018;8.552;2023-03-11T09:11:25;6.72;;;2.90;;
74632;SDS011;63139;52.018;8.552;2023-03-11T09:13:53;7.53;;;1.83;;
74632;SDS011;63139;52.018;8.552;2023-03-11T09:16:21;6.15;;;2.10;;
74632;SDS011;63139;52.018;8.552;2023-03-11T09:18:49;3.55;;;2.10;;
74632;SDS011;63139;52.018;8.552;2023-03-11T09:21:18;4.15;;;2.08;;
74632;SDS011;63139;52.018;8.552;2023-03-11T09:23:46;7.70;;;2.33;;
74632;SDS011;63139;52.018;8.552;2023-03-11T09:26:14;5.97;;;2.17;;
74632;SDS011;63139;52.018;8.552;2023-03-11T09:28:43;8.77;;;2.90;;
74632;SDS011;63139;52.018;8.552;2023-03-11T09:31:14;7.45;;;2.17;;
74632;SDS011;63139;52.018;8.552;2023-03-11T09:33:43;5.43;;;2.28;;
74632;SDS011;63139;52.018;8.552;2023-03-11T09:36:12;3.25;;;1.77;;
74632;SDS011;63139;52.018;8.552;2023-03-11T09:38:41;2.58;;;1.80;;
74632;SDS011;63139;52.018;8.552;2023-03-11T09:41:13;3.45;;;2.22;;
74632;SDS011;63139;52.018;8.552;2023-03-11T09:44:23;3.92;;;1.70;;
74632;SDS011;63139;52.018;8.552;2023-03-11T09:47:15;8.32;;;1.98;;
74632;SDS011;63139;52.018;8.552;2023-03-11T09:52:50;6.18;;;1.92;;
74632;SDS011;63139;52.018;8.552;2023-03-11T09:55:30;8.30;;;2.05;;
74632;SDS011;63139;52.018;8.552;2023-03-11T09:58:03;4.22;;;2.00;;
74632;SDS011;63139;52.018;8.552;2023-03-11T10:00:39;4.68;;;1.90;;
74632;SDS011;63139;52.018;8.552;2023-03-11T10:03:12;6.75;;;2.53;;
74632;SDS011;63139;52.018;8.552;2023-03-11T10:05:49;6.70;;;2.25;;
74632;SDS011;63139;52.018;8.552;2023-03-11T10:08:20;5.13;;;1.83;;
74632;SDS011;63139;52.018;8.552;2023-03-11T10:10:56;8.05;;;2.08;;
74632;SDS011;63139;52.018;8.552;2023-03-11T10:13:33;4.63;;;2.03;;
74632;SDS011;63139;52.018;8.552;2023-03-11T10:16:10;7.55;;;2.00;;
74632;SDS011;63139;52.018;8.552;2023-03-11T10:18:48;20.38;;;2.22;;
74632;SDS011;63139;52.018;8.552;2023-03-11T10:21:25;6.30;;;1.80;;
74632;SDS011;63139;52.018;8.552;2023-03-11T10:24:06;5.00;;;2.15;;
74632;SDS011;63139;52.018;8.552;2023-03-11T10:26:46;5.53;;;2.03;;
74632;SDS011;63139;52.018;8.552;2023-03-11T10:29:19;8.20;;;2.00;;
74632;SDS011;63139;52.018;8.552;2023-03-11T10:31:53;4.82;;;1.92;;
74632;SDS011;63139;52.018;8.552;2023-03-11T10:34:27;7.05;;;2.08;;
74632;SDS011;63139;52.018;8.552;2023-03-11T10:37:04;5.03;;;1.40;;
74632;SDS011;63139;52.018;8.552;2023-03-11T10:39:37;4.78;;;1.60;;
74632;SDS011;63139;52.018;8.552;2023-03-11T10:42:09;5.50;;;1.73;;
74632;SDS011;63139;52.018;8.552;2023-03-11T10:44:40;6.85;;;1.52;;
74632;SDS011;63139;52.018;8.552;2023-03-11T10:47:13;4.15;;;1.52;;
74632;SDS011;63139;52.018;8.552;2023-03-11T10:49:44;7.78;;;1.88;;
74632;SDS011;63139;52.018;8.552;2023-03-11T10:52:12;3.35;;;1.30;;
74632;SDS011;63139;52.018;8.552;2023-03-11T10:54:41;5.25;;;1.42;;
74632;SDS011;63139;52.018;8.552;2023-03-11T10:57:22;7.35;;;1.63;;
74632;SDS011;63139;52.018;8.552;2023-03-11T10:59:52;2.15;;;1.48;;
74632;SDS011;63139;52.018;8.552;2023-03-11T11:02:23;4.95;;;1.55;;
74632;SDS011;63139;52.018;8.552;2023-03-11T11:05:07;7.00;;;1.70;;
74632;SDS011;63139;52.018;8.552;2023-03-11T11:08:01;6.72;;;1.50;;
74632;SDS011;63139;52.018;8.552;2023-03-11T11:10:30;9.07;;;2.00;;
74632;SDS011;63139;52.018;8.552;2023-03-11T11:13:00;6.90;;;1.30;;
74632;SDS011;63139;52.018;8.552;2023-03-11T11:15:30;10.32;;;1.60;;
74632;SDS011;63139;52.018;8.552;2023-03-11T11:18:00;3.58;;;1.45;;
74632;SDS011;63139;52.018;8.552;2023-03-11T11:20:30;9.05;;;2.10;;
74632;SDS011;63139;52.018;8.552;2023-03-11T11:22:59;8.48;;;1.77;;
74632;SDS011;63139;52.018;8.552;2023-03-11T11:25:30;6.20;;;1.70;;
74632;SDS011;63139;52.018;8.552;2023-03-11T11:28:00;7.00;;;1.40;;
74632;SDS011;63139;52.018;8.552;2023-03-11T11:30:31;3.30;;;1.40;;
74632;SDS011;63139;52.018;8.552;2023-03-11T11:35:51;5.53;;;1.67;;
74632;SDS011;63139;52.018;8.552;2023-03-11T11:38:21;8.35;;;1.80;;
74632;SDS011;63139;52.018;8.552;2023-03-11T11:40:50;2.38;;;1.10;;
74632;SDS011;63139;52.018;8.552;2023-03-11T11:43:20;4.50;;;1.50;;
74632;SDS011;63139;52.018;8.552;2023-03-11T11:45:53;4.82;;;1.50;;
74632;SDS011;63139;52.018;8.552;2023-03-11T11:48:25;4.43;;;1.27;;
74632;SDS011;63139;52.018;8.552;2023-03-11T11:51:00;12.65;;;1.85;;
74632;SDS011;63139;52.018;8.552;2023-03-11T11:53:35;4.68;;;1.33;;
74632;SDS011;63139;52.018;8.552;2023-03-11T11:56:09;6.50;;;1.20;;
74632;SDS011;63139;52.018;8.552;2023-03-11T11:58:37;3.72;;;1.25;;
74632;SDS011;63139;52.018;8.552;2023-03-11T12:01:12;6.68;;;1.58;;
74632;SDS011;63139;52.018;8.552;2023-03-11T12:03:56;2.90;;;1.00;;
74632;SDS011;63139;52.018;8.552;2023-03-11T12:09:13;9.57;;;1.33;;
74632;SDS011;63139;52.018;8.552;2023-03-11T12:11:53;6.10;;;1.60;;
74632;SDS011;63139;52.018;8.552;2023-03-11T12:14:29;4.77;;;1.33;;
74632;SDS011;63139;52.018;8.552;2023-03-11T12:17:03;6.05;;;1.50;;
74632;SDS011;63139;52.018;8.552;2023-03-11T12:19:35;8.52;;;1.45;;
74632;SDS011;63139;52.018;8.552;2023-03-11T12:22:27;6.15;;;1.10;;
74632;SDS011;63139;52.018;8.552;2023-03-11T12:25:15;5.32;;;1.20;;
74632;SDS011;63139;52.018;8.552;2023-03-11T12:27:50;5.57;;;1.30;;
74632;SDS011;63139;52.018;8.552;2023-03-11T12:30:22;6.22;;;1.77;;
74632;SDS011;63139;52.018;8.552;2023-03-11T12:32:54;3.97;;;1.80;;
74632;SDS011;63139;52.018;8.552;2023-03-11T12:35:27;6.20;;;1.40;;
74632;SDS011;63139;52.018;8.552;2023-03-11T12:38:04;8.13;;;1.55;;
74632;SDS011;63139;52.018;8.552;2023-03-11T12:49:48;5.35;;;1.50;;
74632;SDS011;63139;52.018;8.552;2023-03-11T12:52:25;3.17;;;1.17;;
74632;SDS011;63139;52.018;8.552;2023-03-11T12:57:47;7.90;;;1.70;;
74632;SDS011;63139;52.018;8.552;2023-03-11T13:00:21;4.63;;;1.35;;
74632;SDS011;63139;52.018;8.552;2023-03-11T13:06:04;6.78;;;1.40;;
74632;SDS011;63139;52.018;8.552;2023-03-11T13:08:47;4.30;;;1.30;;
74632;SDS011;63139;52.018;8.552;2023-03-11T13:11:27;2.55;;;1.33;;
74632;SDS011;63139;52.018;8.552;2023-03-11T13:14:09;3.67;;;1.23;;
74632;SDS011;63139;52.018;8.552;2023-03-11T13:33:24;4.50;;;1.50;;
74632;SDS011;63139;52.018;8.552;2023-03-11T13:36:09;2.50;;;1.23;;
74632;SDS011;63139;52.018;8.552;2023-03-11T13:39:00;3.58;;;1.40;;
74632;SDS011;63139;52.018;8.552;2023-03-11T13:41:47;2.75;;;1.33;;
74632;SDS011;63139;52.018;8.552;2023-03-11T13:44:19;4.22;;;1.48;;
74632;SDS011;63139;52.018;8.552;2023-03-11T13:46:54;8.35;;;1.77;;
74632;SDS011;63139;52.018;8.552;2023-03-11T13:49:30;11.23;;;1.95;;
74632;SDS011;63139;52.018;8.552;2023-03-11T13:52:06;9.00;;;1.80;;
74632;SDS011;63139;52.018;8.552;2023-03-11T13:54:43;8.13;;;2.00;;
74632;SDS011;63139;52.018;8.552;2023-03-11T13:57:26;5.78;;;1.48;;
74632;SDS011;63139;52.018;8.552;2023-03-11T14:00:03;3.67;;;1.10;;
74632;SDS011;63139;52.018;8.552;2023-03-11T14:02:42;3.92;;;1.30;;
74632;SDS011;63139;52.018;8.552;2023-03-11T14:05:14;7.28;;;1.70;;
74632;SDS011;63139;52.018;8.552;2023-03-11T14:07:43;2.40;;;1.02;;
74632;SDS011;63139;52.018;8.552;2023-03-11T14:10:15;6.90;;;1.38;;
74632;SDS011;63139;52.018;8.552;2023-03-11T14:12:46;3.75;;;1.20;;
74632;SDS011;63139;52.018;8.552;2023-03-11T14:15:14;2.88;;;1.10;;
74632;SDS011;63139;52.018;8.552;2023-03-11T14:17:46;4.55;;;1.20;;
74632;SDS011;63139;52.018;8.552;2023-03-11T14:20:14;3.22;;;1.40;;
74632;SDS011;63139;52.018;8.552;2023-03-11T14:22:49;2.28;;;1.10;;
74632;SDS011;63139;52.018;8.552;2023-03-11T14:25:19;4.35;;;1.30;;
74632;SDS011;63139;52.018;8.552;2023-03-11T14:27:53;1.55;;;0.90;;
74632;SDS011;63139;52.018;8.552;2023-03-11T14:30:24;2.83;;;1.08;;
74632;SDS011;63139;52.018;8.552;2023-03-11T14:32:54;3.33;;;1.00;;
74632;SDS011;63139;52.018;8.552;2023-03-11T14:35:24;4.07;;;1.08;;
74632;SDS011;63139;52.018;8.552;2023-03-11T14:37:51;3.55;;;1.00;;
74632;SDS011;63139;52.018;8.552;2023-03-11T14:40:23;2.83;;;1.10;;
74632;SDS011;63139;52.018;8.552;2023-03-11T14:42:55;5.18;;;1.05;;
74632;SDS011;63139;52.018;8.552;2023-03-11T14:45:27;5.43;;;1.23;;
74632;SDS011;63139;52.018;8.552;2023-03-11T14:47:57;5.38;;;1.25;;
74632;SDS011;63139;52.018;8.552;2023-03-11T14:50:30;5.25;;;1.10;;
74632;SDS011;63139;52.018;8.552;2023-03-11T14:53:01;2.58;;;0.90;;
74632;SDS011;63139;52.018;8.552;2023-03-11T14:55:35;3.60;;;1.00;;
74632;SDS011;63139;52.018;8.552;2023-03-11T14:58:09;1.45;;;0.98;;
74632;SDS011;63139;52.018;8.552;2023-03-11T15:00:41;3.50;;;1.00;;
74632;SDS011;63139;52.018;8.552;2023-03-11T15:03:14;3.03;;;1.00;;
74632;SDS011;63139;52.018;8.552;2023-03-11T15:05:49;4.65;;;1.27;;
74632;SDS011;63139;52.018;8.552;2023-03-11T15:08:21;4.53;;;1.00;;
74632;SDS011;63139;52.018;8.552;2023-03-11T15:11:05;4.68;;;1.10;;
74632;SDS011;63139;52.018;8.552;2023-03-11T15:13:36;6.15;;;1.45;;
74632;SDS011;63139;52.018;8.552;2023-03-11T15:16:16;5.35;;;1.33;;
74632;SDS011;63139;52.018;8.552;2023-03-11T15:18:49;4.47;;;1.70;;
74632;SDS011;63139;52.018;8.552;2023-03-11T15:21:17;1.98;;;1.20;;
74632;SDS011;63139;52.018;8.552;2023-03-11T15:23:48;2.90;;;1.30;;
74632;SDS011;63139;52.018;8.552;2023-03-11T15:26:18;4.07;;;1.15;;
74632;SDS011;63139;52.018;8.552;2023-03-11T15:28:58;2.33;;;0.93;;
74632;SDS011;63139;52.018;8.552;2023-03-11T15:31:34;4.03;;;1.17;;
74632;SDS011;63139;52.018;8.552;2023-03-11T15:34:18;3.17;;;1.33;;
74632;SDS011;63139;52.018;8.552;2023-03-11T15:36:54;2.72;;;1.20;;
74632;SDS011;63139;52.018;8.552;2023-03-11T15:39:39;3.35;;;1.10;;
74632;SDS011;63139;52.018;8.552;2023-03-11T15:42:14;3.25;;;1.00;;
74632;SDS011;63139;52.018;8.552;2023-03-11T15:44:54;2.42;;;1.08;;
74632;SDS011;63139;52.018;8.552;2023-03-11T15:47:30;1.95;;;0.95;;
74632;SDS011;63139;52.018;8.552;2023-03-11T15:50:01;2.95;;;1.02;;
74632;SDS011;63139;52.018;8.552;2023-03-11T15:52:29;2.38;;;1.10;;